sensor_id;sensor_type;location;lat;lon;timestamp;P1;durP1;ratioP1;P2;durP2;ratioP2
22184;SDS011;11258;52.516;13.318;2023-06-22T00:00:49;11.93;;;10.60;;
22184;SDS011;11258;52.516;13.318;2023-06-22T00:03:16;12.45;;;10.70;;
22184;SDS011;11258;52.516;13.318;2023-06-22T00:05:43;16.67;;;13.20;;
22184;SDS011;11258;52.516;13.318;2023-06-22T00:08:08;21.00;;;17.30;;
22184;SDS011;11258;52.516;13.318;2023-06-22T00:10:34;26.10;;;18.75;;
22184;SDS011;11258;52.516;13.318;2023-06-22T00:13:00;12.93;;;11.50;;
22184;SDS011;11258;52.516;13.318;2023-06-22T00:15:26;18.02;;;15.10;;
22184;SDS011;11258;52.516;13.318;2023-06-22T00:17:51;26.45;;;21.52;;
22184;SDS011;11258;52.516;13.318;2023-06-22T00:20:17;19.75;;;15.60;;
22184;SDS011;11258;52.516;13.318;2023-06-22T00:22:43;16.20;;;12.77;;
22184;SDS011;11258;52.516;13.318;2023-06-22T00:25:09;11.52;;;10.00;;
22184;SDS011;11258;52.516;13.318;2023-06-22T00:27:35;15.40;;;10.45;;
22184;SDS011;11258;52.516;13.318;2023-06-22T00:30:02;11.57;;;10.38;;
22184;SDS011;11258;52.516;13.318;2023-06-22T00:32:28;11.45;;;10.32;;
22184;SDS011;11258;52.516;13.318;2023-06-22T00:34:54;10.43;;;9.32;;
22184;SDS011;11258;52.516;13.318;2023-06-22T00:37:19;13.80;;;12.10;;
22184;SDS011;11258;52.516;13.318;2023-06-22T00:39:50;13.88;;;12.45;;
22184;SDS011;11258;52.516;13.318;2023-06-22T00:42:16;12.20;;;9.85;;
22184;SDS011;11258;52.516;13.318;2023-06-22T00:44:42;11.23;;;10.02;;
22184;SDS011;11258;52.516;13.318;2023-06-22T00:47:10;13.48;;;10.45;;
22184;SDS011;11258;52.516;13.318;2023-06-22T00:49:38;10.77;;;8.70;;
22184;SDS011;11258;52.516;13.318;2023-06-22T00:52:04;11.02;;;9.48;;
22184;SDS011;11258;52.516;13.318;2023-06-22T00:54:34;14.60;;;12.45;;
22184;SDS011;11258;52.516;13.318;2023-06-22T00:57:01;16.45;;;12.60;;
22184;SDS011;11258;52.516;13.318;2023-06-22T00:59:27;12.65;;;11.30;;
22184;SDS011;11258;52.516;13.318;2023-06-22T01:01:53;13.05;;;10.30;;
22184;SDS011;11258;52.516;13.318;2023-06-22T01:04:19;13.27;;;10.77;;
22184;SDS011;11258;52.516;13.318;2023-06-22T01:09:51;10.85;;;9.75;;
22184;SDS011;11258;52.516;13.318;2023-06-22T01:12:27;11.30;;;10.18;;
22184;SDS011;11258;52.516;13.318;2023-06-22T01:15:00;18.73;;;14.60;;
22184;SDS011;11258;52.516;13.318;2023-06-22T01:17:33;11.63;;;10.45;;
22184;SDS011;11258;52.516;13.318;2023-06-22T01:20:00;13.40;;;11.32;;
22184;SDS011;11258;52.516;13.318;2023-06-22T01:22:30;11.13;;;9.98;;
22184;SDS011;11258;52.516;13.318;2023-06-22T01:30:10;11.80;;;10.48;;
22184;SDS011;11258;52.516;13.318;2023-06-22T01:32:38;11.73;;;10.52;;
22184;SDS011;11258;52.516;13.318;2023-06-22T01:35:06;11.85;;;10.63;;
22184;SDS011;11258;52.516;13.318;2023-06-22T01:37:33;14.30;;;11.45;;
22184;SDS011;11258;52.516;13.318;2023-06-22T01:40:01;11.77;;;10.57;;
22184;SDS011;11258;52.516;13.318;2023-06-22T01:42:29;12.63;;;10.52;;
22184;SDS011;11258;52.516;13.318;2023-06-22T01:44:56;11.98;;;10.68;;
22184;SDS011;11258;52.516;13.318;2023-06-22T01:47:23;12.88;;;11.07;;
22184;SDS011;11258;52.516;13.318;2023-06-22T01:49:49;12.63;;;10.98;;
22184;SDS011;11258;52.516;13.318;2023-06-22T01:52:16;13.88;;;11.90;;
22184;SDS011;11258;52.516;13.318;2023-06-22T01:54:42;13.48;;;11.32;;
22184;SDS011;11258;52.516;13.318;2023-06-22T01:57:08;12.38;;;11.07;;
22184;SDS011;11258;52.516;13.318;2023-06-22T01:59:37;13.70;;;11.13;;
22184;SDS011;11258;52.516;13.318;2023-06-22T02:02:12;13.23;;;11.93;;
22184;SDS011;11258;52.516;13.318;2023-06-22T02:07:12;14.15;;;12.40;;
22184;SDS011;11258;52.516;13.318;2023-06-22T02:09:42;16.15;;;12.65;;
22184;SDS011;11258;52.516;13.318;2023-06-22T02:12:15;16.17;;;12.63;;
22184;SDS011;11258;52.516;13.318;2023-06-22T02:14:43;15.45;;;13.20;;
22184;SDS011;11258;52.516;13.318;2023-06-22T02:17:11;13.48;;;12.18;;
22184;SDS011;11258;52.516;13.318;2023-06-22T02:19:37;17.58;;;13.57;;
22184;SDS011;11258;52.516;13.318;2023-06-22T02:22:05;15.05;;;13.45;;
22184;SDS011;11258;52.516;13.318;2023-06-22T02:24:31;19.92;;;14.32;;
22184;SDS011;11258;52.516;13.318;2023-06-22T02:26:58;17.90;;;14.75;;
22184;SDS011;11258;52.516;13.318;2023-06-22T02:29:25;17.45;;;14.90;;
22184;SDS011;11258;52.516;13.318;2023-06-22T02:31:52;17.40;;;14.38;;
22184;SDS011;11258;52.516;13.318;2023-06-22T02:34:18;16.52;;;14.80;;
22184;SDS011;11258;52.516;13.318;2023-06-22T02:36:47;19.55;;;15.70;;
22184;SDS011;11258;52.516;13.318;2023-06-22T02:39:20;17.23;;;14.93;;
22184;SDS011;11258;52.516;13.318;2023-06-22T02:41:47;17.05;;;14.75;;
22184;SDS011;11258;52.516;13.318;2023-06-22T02:44:14;18.52;;;15.55;;
22184;SDS011;11258;52.516;13.318;2023-06-22T02:46:40;20.30;;;14.57;;
22184;SDS011;11258;52.516;13.318;2023-06-22T02:49:06;17.67;;;15.55;;
22184;SDS011;11258;52.516;13.318;2023-06-22T02:51:33;18.55;;;15.25;;
22184;SDS011;11258;52.516;13.318;2023-06-22T02:53:59;19.27;;;14.70;;
22184;SDS011;11258;52.516;13.318;2023-06-22T02:56:25;17.77;;;15.85;;
22184;SDS011;11258;52.516;13.318;2023-06-22T02:58:51;17.70;;;15.02;;
22184;SDS011;11258;52.516;13.318;2023-06-22T03:01:17;16.95;;;14.70;;
22184;SDS011;11258;52.516;13.318;2023-06-22T03:03:49;16.30;;;14.43;;
22184;SDS011;11258;52.516;13.318;2023-06-22T03:06:15;18.83;;;15.68;;
22184;SDS011;11258;52.516;13.318;2023-06-22T03:08:40;17.52;;;14.98;;
22184;SDS011;11258;52.516;13.318;2023-06-22T03:11:06;16.33;;;14.52;;
22184;SDS011;11258;52.516;13.318;2023-06-22T03:13:32;16.38;;;14.57;;
22184;SDS011;11258;52.516;13.318;2023-06-22T03:15:58;18.10;;;15.88;;
22184;SDS011;11258;52.516;13.318;2023-06-22T03:18:24;18.27;;;15.07;;
22184;SDS011;11258;52.516;13.318;2023-06-22T03:20:50;17.80;;;15.85;;
22184;SDS011;11258;52.516;13.318;2023-06-22T03:23:15;17.60;;;14.30;;
22184;SDS011;11258;52.516;13.318;2023-06-22T03:25:41;16.88;;;15.02;;
22184;SDS011;11258;52.516;13.318;2023-06-22T03:28:09;15.90;;;14.02;;
22184;SDS011;11258;52.516;13.318;2023-06-22T03:30:35;17.05;;;13.68;;
22184;SDS011;11258;52.516;13.318;2023-06-22T03:33:01;16.63;;;13.40;;
22184;SDS011;11258;52.516;13.318;2023-06-22T03:35:26;14.93;;;12.57;;
22184;SDS011;11258;52.516;13.318;2023-06-22T03:37:52;13.95;;;12.50;;
22184;SDS011;11258;52.516;13.318;2023-06-22T03:40:18;12.93;;;11.57;;
22184;SDS011;11258;52.516;13.318;2023-06-22T03:42:44;12.13;;;10.93;;
22184;SDS011;11258;52.516;13.318;2023-06-22T03:45:10;11.93;;;10.40;;
22184;SDS011;11258;52.516;13.318;2023-06-22T03:47:36;12.25;;;10.93;;
22184;SDS011;11258;52.516;13.318;2023-06-22T03:50:02;12.98;;;10.52;;
22184;SDS011;11258;52.516;13.318;2023-06-22T03:52:28;12.30;;;9.13;;
22184;SDS011;11258;52.516;13.318;2023-06-22T03:54:55;10.73;;;9.02;;
22184;SDS011;11258;52.516;13.318;2023-06-22T03:57:21;12.40;;;9.77;;
22184;SDS011;11258;52.516;13.318;2023-06-22T03:59:46;11.02;;;8.65;;
22184;SDS011;11258;52.516;13.318;2023-06-22T04:02:12;11.80;;;8.25;;
22184;SDS011;11258;52.516;13.318;2023-06-22T04:04:38;8.85;;;7.82;;
22184;SDS011;11258;52.516;13.318;2023-06-22T04:07:04;10.27;;;8.32;;
22184;SDS011;11258;52.516;13.318;2023-06-22T04:09:30;9.68;;;8.68;;
22184;SDS011;11258;52.516;13.318;2023-06-22T04:11:55;10.20;;;8.40;;
22184;SDS011;11258;52.516;13.318;2023-06-22T04:14:21;9.70;;;8.70;;
22184;SDS011;11258;52.516;13.318;2023-06-22T04:16:47;10.27;;;8.52;;
22184;SDS011;11258;52.516;13.318;2023-06-22T04:19:13;8.23;;;7.25;;
22184;SDS011;11258;52.516;13.318;2023-06-22T04:21:41;7.97;;;6.85;;
22184;SDS011;11258;52.516;13.318;2023-06-22T04:24:07;10.23;;;6.97;;
22184;SDS011;11258;52.516;13.318;2023-06-22T04:26:32;8.60;;;6.72;;
22184;SDS011;11258;52.516;13.318;2023-06-22T04:29:01;8.57;;;7.63;;
22184;SDS011;11258;52.516;13.318;2023-06-22T04:31:30;9.63;;;8.02;;
22184;SDS011;11258;52.516;13.318;2023-06-22T04:33:57;7.80;;;6.90;;
22184;SDS011;11258;52.516;13.318;2023-06-22T04:36:30;9.15;;;6.97;;
22184;SDS011;11258;52.516;13.318;2023-06-22T04:39:02;9.30;;;6.93;;
22184;SDS011;11258;52.516;13.318;2023-06-22T04:41:38;8.07;;;5.93;;
22184;SDS011;11258;52.516;13.318;2023-06-22T04:44:15;7.00;;;6.35;;
22184;SDS011;11258;52.516;13.318;2023-06-22T04:46:48;9.02;;;8.13;;
22184;SDS011;11258;52.516;13.318;2023-06-22T04:49:22;8.13;;;5.78;;
22184;SDS011;11258;52.516;13.318;2023-06-22T04:51:57;7.38;;;6.07;;
22184;SDS011;11258;52.516;13.318;2023-06-22T04:54:23;6.30;;;5.70;;
22184;SDS011;11258;52.516;13.318;2023-06-22T04:56:49;6.45;;;4.85;;
22184;SDS011;11258;52.516;13.318;2023-06-22T04:59:21;6.85;;;5.68;;
22184;SDS011;11258;52.516;13.318;2023-06-22T05:01:47;6.63;;;5.22;;
22184;SDS011;11258;52.516;13.318;2023-06-22T05:04:13;7.63;;;5.95;;
22184;SDS011;11258;52.516;13.318;2023-06-22T05:06:39;7.43;;;6.20;;
22184;SDS011;11258;52.516;13.318;2023-06-22T05:09:04;9.00;;;5.93;;
22184;SDS011;11258;52.516;13.318;2023-06-22T05:11:30;8.55;;;7.55;;
22184;SDS011;11258;52.516;13.318;2023-06-22T05:13:56;6.50;;;4.60;;
22184;SDS011;11258;52.516;13.318;2023-06-22T05:16:22;6.75;;;5.63;;
22184;SDS011;11258;52.516;13.318;2023-06-22T05:18:51;5.82;;;4.53;;
22184;SDS011;11258;52.516;13.318;2023-06-22T05:21:23;5.30;;;4.25;;
22184;SDS011;11258;52.516;13.318;2023-06-22T05:23:50;5.18;;;4.38;;
22184;SDS011;11258;52.516;13.318;2023-06-22T05:26:17;6.20;;;4.65;;
22184;SDS011;11258;52.516;13.318;2023-06-22T05:28:44;9.45;;;4.85;;
22184;SDS011;11258;52.516;13.318;2023-06-22T05:31:11;6.45;;;3.83;;
22184;SDS011;11258;52.516;13.318;2023-06-22T05:33:38;5.35;;;4.18;;
22184;SDS011;11258;52.516;13.318;2023-06-22T05:36:04;7.13;;;4.60;;
22184;SDS011;11258;52.516;13.318;2023-06-22T05:38:30;7.32;;;4.45;;
22184;SDS011;11258;52.516;13.318;2023-06-22T05:40:56;9.75;;;4.82;;
22184;SDS011;11258;52.516;13.318;2023-06-22T05:43:21;7.07;;;4.47;;
22184;SDS011;11258;52.516;13.318;2023-06-22T05:45:47;7.63;;;3.88;;
22184;SDS011;11258;52.516;13.318;2023-06-22T05:48:13;7.10;;;3.92;;
22184;SDS011;11258;52.516;13.318;2023-06-22T05:50:38;5.85;;;3.80;;
22184;SDS011;11258;52.516;13.318;2023-06-22T05:53:04;5.60;;;4.30;;
22184;SDS011;11258;52.516;13.318;2023-06-22T05:55:31;8.52;;;5.90;;
22184;SDS011;11258;52.516;13.318;2023-06-22T05:57:57;4.93;;;3.90;;
22184;SDS011;11258;52.516;13.318;2023-06-22T06:00:23;8.13;;;4.35;;
22184;SDS011;11258;52.516;13.318;2023-06-22T06:02:49;6.82;;;4.78;;
22184;SDS011;11258;52.516;13.318;2023-06-22T06:05:14;6.50;;;5.65;;
22184;SDS011;11258;52.516;13.318;2023-06-22T06:07:41;9.48;;;5.35;;
22184;SDS011;11258;52.516;13.318;2023-06-22T06:10:07;7.28;;;5.38;;
22184;SDS011;11258;52.516;13.318;2023-06-22T06:12:34;5.32;;;4.65;;
22184;SDS011;11258;52.516;13.318;2023-06-22T06:14:59;5.63;;;4.22;;
22184;SDS011;11258;52.516;13.318;2023-06-22T06:17:25;5.93;;;5.05;;
22184;SDS011;11258;52.516;13.318;2023-06-22T06:19:51;5.38;;;3.92;;
22184;SDS011;11258;52.516;13.318;2023-06-22T06:22:16;4.40;;;4.00;;
22184;SDS011;11258;52.516;13.318;2023-06-22T06:24:43;4.88;;;3.85;;
22184;SDS011;11258;52.516;13.318;2023-06-22T06:27:09;5.82;;;3.70;;
22184;SDS011;11258;52.516;13.318;2023-06-22T06:29:35;6.05;;;4.18;;
22184;SDS011;11258;52.516;13.318;2023-06-22T06:32:00;5.50;;;3.53;;
22184;SDS011;11258;52.516;13.318;2023-06-22T06:34:26;5.60;;;4.05;;
22184;SDS011;11258;52.516;13.318;2023-06-22T06:36:51;5.15;;;3.80;;
22184;SDS011;11258;52.516;13.318;2023-06-22T06:39:17;4.47;;;3.42;;
22184;SDS011;11258;52.516;13.318;2023-06-22T06:41:43;3.67;;;3.10;;
22184;SDS011;11258;52.516;13.318;2023-06-22T06:44:08;6.60;;;3.67;;
22184;SDS011;11258;52.516;13.318;2023-06-22T06:46:34;4.45;;;3.80;;
22184;SDS011;11258;52.516;13.318;2023-06-22T06:48:59;7.75;;;4.05;;
22184;SDS011;11258;52.516;13.318;2023-06-22T06:51:25;5.18;;;3.47;;
22184;SDS011;11258;52.516;13.318;2023-06-22T06:53:51;3.95;;;3.33;;
22184;SDS011;11258;52.516;13.318;2023-06-22T06:56:16;4.57;;;3.58;;
22184;SDS011;11258;52.516;13.318;2023-06-22T06:58:42;5.05;;;3.33;;
22184;SDS011;11258;52.516;13.318;2023-06-22T07:01:10;6.40;;;3.70;;
22184;SDS011;11258;52.516;13.318;2023-06-22T07:03:38;4.00;;;3.15;;
22184;SDS011;11258;52.516;13.318;2023-06-22T07:06:04;4.63;;;3.33;;
22184;SDS011;11258;52.516;13.318;2023-06-22T07:08:30;6.32;;;3.60;;
22184;SDS011;11258;52.516;13.318;2023-06-22T07:10:55;4.72;;;3.33;;
22184;SDS011;11258;52.516;13.318;2023-06-22T07:13:21;3.47;;;3.17;;
22184;SDS011;11258;52.516;13.318;2023-06-22T07:15:47;3.72;;;3.42;;
22184;SDS011;11258;52.516;13.318;2023-06-22T07:18:12;6.80;;;3.78;;
22184;SDS011;11258;52.516;13.318;2023-06-22T07:20:38;7.55;;;5.05;;
22184;SDS011;11258;52.516;13.318;2023-06-22T07:23:04;5.75;;;4.03;;
22184;SDS011;11258;52.516;13.318;2023-06-22T07:25:30;4.80;;;3.47;;
22184;SDS011;11258;52.516;13.318;2023-06-22T07:28:02;8.45;;;3.30;;
22184;SDS011;11258;52.516;13.318;2023-06-22T07:30:30;5.15;;;3.63;;
22184;SDS011;11258;52.516;13.318;2023-06-22T07:32:56;5.40;;;4.50;;
22184;SDS011;11258;52.516;13.318;2023-06-22T07:35:23;4.78;;;3.63;;
22184;SDS011;11258;52.516;13.318;2023-06-22T07:37:49;3.95;;;3.53;;
22184;SDS011;11258;52.516;13.318;2023-06-22T07:40:15;3.63;;;2.90;;
22184;SDS011;11258;52.516;13.318;2023-06-22T07:42:41;4.43;;;3.00;;
22184;SDS011;11258;52.516;13.318;2023-06-22T07:45:07;3.72;;;2.75;;
22184;SDS011;11258;52.516;13.318;2023-06-22T07:47:33;7.15;;;2.95;;
22184;SDS011;11258;52.516;13.318;2023-06-22T07:50:00;3.47;;;2.80;;
22184;SDS011;11258;52.516;13.318;2023-06-22T07:52:27;5.32;;;3.28;;
22184;SDS011;11258;52.516;13.318;2023-06-22T07:54:54;4.32;;;3.13;;
22184;SDS011;11258;52.516;13.318;2023-06-22T07:57:20;8.10;;;4.70;;
22184;SDS011;11258;52.516;13.318;2023-06-22T07:59:45;5.18;;;3.38;;
22184;SDS011;11258;52.516;13.318;2023-06-22T08:02:11;4.50;;;3.45;;
22184;SDS011;11258;52.516;13.318;2023-06-22T08:04:37;3.30;;;3.00;;
22184;SDS011;11258;52.516;13.318;2023-06-22T08:07:03;4.72;;;2.83;;
22184;SDS011;11258;52.516;13.318;2023-06-22T08:09:30;4.35;;;2.88;;
22184;SDS011;11258;52.516;13.318;2023-06-22T08:11:57;3.13;;;2.78;;
22184;SDS011;11258;52.516;13.318;2023-06-22T08:14:23;4.45;;;2.60;;
22184;SDS011;11258;52.516;13.318;2023-06-22T08:16:52;4.60;;;3.13;;
22184;SDS011;11258;52.516;13.318;2023-06-22T08:19:18;5.68;;;2.70;;
22184;SDS011;11258;52.516;13.318;2023-06-22T08:21:44;4.00;;;3.10;;
22184;SDS011;11258;52.516;13.318;2023-06-22T08:24:09;5.88;;;3.33;;
22184;SDS011;11258;52.516;13.318;2023-06-22T08:26:35;5.32;;;3.38;;
22184;SDS011;11258;52.516;13.318;2023-06-22T08:29:02;4.45;;;3.05;;
22184;SDS011;11258;52.516;13.318;2023-06-22T08:31:29;4.03;;;3.28;;
22184;SDS011;11258;52.516;13.318;2023-06-22T08:33:55;4.75;;;2.65;;
22184;SDS011;11258;52.516;13.318;2023-06-22T08:36:21;7.57;;;3.15;;
22184;SDS011;11258;52.516;13.318;2023-06-22T08:38:47;7.10;;;2.85;;
22184;SDS011;11258;52.516;13.318;2023-06-22T08:41:16;2.80;;;2.50;;
22184;SDS011;11258;52.516;13.318;2023-06-22T08:43:43;3.15;;;2.65;;
22184;SDS011;11258;52.516;13.318;2023-06-22T08:46:09;3.20;;;2.65;;
22184;SDS011;11258;52.516;13.318;2023-06-22T08:48:38;7.65;;;3.05;;
22184;SDS011;11258;52.516;13.318;2023-06-22T08:51:04;4.15;;;3.35;;
22184;SDS011;11258;52.516;13.318;2023-06-22T08:53:30;5.55;;;3.50;;
22184;SDS011;11258;52.516;13.318;2023-06-22T08:55:55;5.25;;;4.32;;
22184;SDS011;11258;52.516;13.318;2023-06-22T08:58:21;4.68;;;3.40;;
22184;SDS011;11258;52.516;13.318;2023-06-22T09:00:47;4.68;;;2.95;;
22184;SDS011;11258;52.516;13.318;2023-06-22T09:03:13;6.53;;;3.65;;
22184;SDS011;11258;52.516;13.318;2023-06-22T09:05:39;6.63;;;5.07;;
22184;SDS011;11258;52.516;13.318;2023-06-22T09:08:05;5.75;;;2.85;;
22184;SDS011;11258;52.516;13.318;2023-06-22T09:10:31;3.42;;;3.13;;
22184;SDS011;11258;52.516;13.318;2023-06-22T09:12:57;7.30;;;3.95;;
22184;SDS011;11258;52.516;13.318;2023-06-22T09:15:22;4.82;;;3.80;;
22184;SDS011;11258;52.516;13.318;2023-06-22T09:17:48;5.22;;;3.70;;
22184;SDS011;11258;52.516;13.318;2023-06-22T09:20:14;5.82;;;3.38;;
22184;SDS011;11258;52.516;13.318;2023-06-22T09:22:40;6.13;;;4.00;;
22184;SDS011;11258;52.516;13.318;2023-06-22T09:25:06;4.40;;;3.55;;
22184;SDS011;11258;52.516;13.318;2023-06-22T09:27:32;3.85;;;3.45;;
22184;SDS011;11258;52.516;13.318;2023-06-22T09:29:58;5.50;;;4.70;;
22184;SDS011;11258;52.516;13.318;2023-06-22T09:32:24;6.35;;;4.50;;
22184;SDS011;11258;52.516;13.318;2023-06-22T09:34:50;4.55;;;4.10;;
22184;SDS011;11258;52.516;13.318;2023-06-22T09:37:16;6.18;;;3.83;;
22184;SDS011;11258;52.516;13.318;2023-06-22T09:39:42;5.53;;;4.45;;
22184;SDS011;11258;52.516;13.318;2023-06-22T09:42:07;2.80;;;2.55;;
22184;SDS011;11258;52.516;13.318;2023-06-22T09:44:33;2.78;;;2.50;;
22184;SDS011;11258;52.516;13.318;2023-06-22T09:46:59;4.63;;;2.70;;
22184;SDS011;11258;52.516;13.318;2023-06-22T09:49:25;8.10;;;5.47;;
22184;SDS011;11258;52.516;13.318;2023-06-22T09:51:51;5.45;;;3.10;;
22184;SDS011;11258;52.516;13.318;2023-06-22T09:54:17;6.68;;;3.55;;
22184;SDS011;11258;52.516;13.318;2023-06-22T09:56:43;3.45;;;2.75;;
22184;SDS011;11258;52.516;13.318;2023-06-22T09:59:08;4.25;;;3.05;;
22184;SDS011;11258;52.516;13.318;2023-06-22T10:01:34;5.72;;;3.50;;
22184;SDS011;11258;52.516;13.318;2023-06-22T10:04:00;5.00;;;3.65;;
22184;SDS011;11258;52.516;13.318;2023-06-22T10:06:27;4.40;;;3.28;;
22184;SDS011;11258;52.516;13.318;2023-06-22T10:08:52;4.88;;;4.15;;
22184;SDS011;11258;52.516;13.318;2023-06-22T10:11:18;4.93;;;3.67;;
22184;SDS011;11258;52.516;13.318;2023-06-22T10:13:44;6.82;;;3.42;;
22184;SDS011;11258;52.516;13.318;2023-06-22T10:16:09;4.80;;;3.45;;
22184;SDS011;11258;52.516;13.318;2023-06-22T10:18:35;3.20;;;2.90;;
22184;SDS011;11258;52.516;13.318;2023-06-22T10:21:01;4.32;;;3.80;;
22184;SDS011;11258;52.516;13.318;2023-06-22T10:23:27;8.30;;;4.28;;
22184;SDS011;11258;52.516;13.318;2023-06-22T10:25:53;5.57;;;4.13;;
22184;SDS011;11258;52.516;13.318;2023-06-22T10:28:18;4.50;;;4.10;;
22184;SDS011;11258;52.516;13.318;2023-06-22T10:30:44;5.88;;;3.63;;
22184;SDS011;11258;52.516;13.318;2023-06-22T10:33:10;4.47;;;4.05;;
22184;SDS011;11258;52.516;13.318;2023-06-22T10:35:37;5.10;;;3.58;;
22184;SDS011;11258;52.516;13.318;2023-06-22T10:38:03;5.28;;;3.92;;
22184;SDS011;11258;52.516;13.318;2023-06-22T10:40:29;5.15;;;4.25;;
22184;SDS011;11258;52.516;13.318;2023-06-22T10:42:54;4.82;;;4.32;;
22184;SDS011;11258;52.516;13.318;2023-06-22T10:45:20;5.93;;;4.35;;
22184;SDS011;11258;52.516;13.318;2023-06-22T10:47:46;4.75;;;3.75;;
22184;SDS011;11258;52.516;13.318;2023-06-22T10:50:11;6.43;;;3.70;;
22184;SDS011;11258;52.516;13.318;2023-06-22T10:52:37;5.45;;;3.33;;
22184;SDS011;11258;52.516;13.318;2023-06-22T10:55:03;4.15;;;3.75;;
22184;SDS011;11258;52.516;13.318;2023-06-22T10:57:29;7.63;;;3.90;;
22184;SDS011;11258;52.516;13.318;2023-06-22T10:59:55;5.68;;;4.20;;
22184;SDS011;11258;52.516;13.318;2023-06-22T11:02:20;5.38;;;4.80;;
22184;SDS011;11258;52.516;13.318;2023-06-22T11:04:46;6.03;;;4.38;;
22184;SDS011;11258;52.516;13.318;2023-06-22T11:07:12;5.38;;;4.30;;
22184;SDS011;11258;52.516;13.318;2023-06-22T11:09:38;5.82;;;4.25;;
22184;SDS011;11258;52.516;13.318;2023-06-22T11:12:04;6.05;;;4.35;;
22184;SDS011;11258;52.516;13.318;2023-06-22T11:14:31;6.28;;;4.45;;
22184;SDS011;11258;52.516;13.318;2023-06-22T11:16:58;4.43;;;4.00;;
22184;SDS011;11258;52.516;13.318;2023-06-22T11:19:24;4.32;;;3.88;;
22184;SDS011;11258;52.516;13.318;2023-06-22T11:21:50;4.75;;;4.35;;
22184;SDS011;11258;52.516;13.318;2023-06-22T11:24:16;4.63;;;4.22;;
22184;SDS011;11258;52.516;13.318;2023-06-22T11:26:42;4.50;;;4.10;;
22184;SDS011;11258;52.516;13.318;2023-06-22T11:29:08;6.32;;;3.90;;
22184;SDS011;11258;52.516;13.318;2023-06-22T11:31:34;4.40;;;4.00;;
22184;SDS011;11258;52.516;13.318;2023-06-22T11:34:00;5.22;;;4.30;;
22184;SDS011;11258;52.516;13.318;2023-06-22T11:36:26;5.22;;;4.07;;
22184;SDS011;11258;52.516;13.318;2023-06-22T11:38:52;5.30;;;4.05;;
22184;SDS011;11258;52.516;13.318;2023-06-22T11:41:17;4.82;;;4.15;;
22184;SDS011;11258;52.516;13.318;2023-06-22T11:43:44;4.05;;;3.67;;
22184;SDS011;11258;52.516;13.318;2023-06-22T11:46:09;4.63;;;4.22;;
22184;SDS011;11258;52.516;13.318;2023-06-22T11:48:35;5.47;;;4.13;;
22184;SDS011;11258;52.516;13.318;2023-06-22T11:51:01;5.20;;;3.97;;
22184;SDS011;11258;52.516;13.318;2023-06-22T11:53:28;6.72;;;4.40;;
22184;SDS011;11258;52.516;13.318;2023-06-22T11:55:54;4.38;;;3.88;;
22184;SDS011;11258;52.516;13.318;2023-06-22T11:58:20;5.10;;;4.30;;
22184;SDS011;11258;52.516;13.318;2023-06-22T12:00:46;4.93;;;3.95;;
22184;SDS011;11258;52.516;13.318;2023-06-22T12:03:11;9.10;;;4.03;;
22184;SDS011;11258;52.516;13.318;2023-06-22T12:05:37;6.90;;;4.00;;
22184;SDS011;11258;52.516;13.318;2023-06-22T12:08:03;5.30;;;3.78;;
22184;SDS011;11258;52.516;13.318;2023-06-22T12:10:29;7.45;;;4.13;;
22184;SDS011;11258;52.516;13.318;2023-06-22T12:12:55;5.85;;;4.57;;
22184;SDS011;11258;52.516;13.318;2023-06-22T12:15:22;5.35;;;4.85;;
22184;SDS011;11258;52.516;13.318;2023-06-22T12:17:48;5.97;;;5.10;;
22184;SDS011;11258;52.516;13.318;2023-06-22T12:20:14;6.93;;;5.00;;
22184;SDS011;11258;52.516;13.318;2023-06-22T12:22:40;5.82;;;5.20;;
22184;SDS011;11258;52.516;13.318;2023-06-22T12:25:06;5.80;;;4.55;;
22184;SDS011;11258;52.516;13.318;2023-06-22T12:27:35;5.65;;;4.43;;
22184;SDS011;11258;52.516;13.318;2023-06-22T12:30:02;7.10;;;6.22;;
22184;SDS011;11258;52.516;13.318;2023-06-22T12:32:28;4.72;;;3.80;;
22184;SDS011;11258;52.516;13.318;2023-06-22T12:34:53;6.88;;;4.25;;
22184;SDS011;11258;52.516;13.318;2023-06-22T12:37:20;7.03;;;5.43;;
22184;SDS011;11258;52.516;13.318;2023-06-22T12:39:45;5.32;;;4.32;;
22184;SDS011;11258;52.516;13.318;2023-06-22T12:42:11;6.55;;;5.05;;
22184;SDS011;11258;52.516;13.318;2023-06-22T12:44:37;4.72;;;4.30;;
22184;SDS011;11258;52.516;13.318;2023-06-22T12:47:04;8.10;;;6.20;;
22184;SDS011;11258;52.516;13.318;2023-06-22T12:49:30;5.45;;;4.95;;
22184;SDS011;11258;52.516;13.318;2023-06-22T12:51:56;5.10;;;4.63;;
22184;SDS011;11258;52.516;13.318;2023-06-22T12:54:22;6.53;;;4.32;;
22184;SDS011;11258;52.516;13.318;2023-06-22T12:56:47;7.05;;;4.57;;
22184;SDS011;11258;52.516;13.318;2023-06-22T12:59:15;5.53;;;4.97;;
22184;SDS011;11258;52.516;13.318;2023-06-22T13:01:42;6.25;;;5.30;;
22184;SDS011;11258;52.516;13.318;2023-06-22T13:04:09;5.20;;;4.70;;
22184;SDS011;11258;52.516;13.318;2023-06-22T13:06:36;6.70;;;4.60;;
22184;SDS011;11258;52.516;13.318;2023-06-22T13:09:01;6.38;;;5.03;;
22184;SDS011;11258;52.516;13.318;2023-06-22T13:11:30;5.03;;;4.47;;
22184;SDS011;11258;52.516;13.318;2023-06-22T13:13:55;5.93;;;3.80;;
22184;SDS011;11258;52.516;13.318;2023-06-22T13:16:21;5.40;;;4.13;;
22184;SDS011;11258;52.516;13.318;2023-06-22T13:18:46;4.57;;;4.15;;
22184;SDS011;11258;52.516;13.318;2023-06-22T13:21:12;6.40;;;4.53;;
22184;SDS011;11258;52.516;13.318;2023-06-22T13:23:39;4.90;;;4.43;;
22184;SDS011;11258;52.516;13.318;2023-06-22T13:26:04;7.20;;;5.20;;
22184;SDS011;11258;52.516;13.318;2023-06-22T13:28:30;7.10;;;5.60;;
22184;SDS011;11258;52.516;13.318;2023-06-22T13:30:56;6.22;;;5.60;;
22184;SDS011;11258;52.516;13.318;2023-06-22T13:33:21;6.10;;;5.05;;
22184;SDS011;11258;52.516;13.318;2023-06-22T13:35:47;5.35;;;4.72;;
22184;SDS011;11258;52.516;13.318;2023-06-22T13:38:13;4.70;;;4.30;;
22184;SDS011;11258;52.516;13.318;2023-06-22T13:40:38;5.78;;;5.28;;
22184;SDS011;11258;52.516;13.318;2023-06-22T13:43:04;7.57;;;4.90;;
22184;SDS011;11258;52.516;13.318;2023-06-22T13:45:30;5.32;;;4.40;;
22184;SDS011;11258;52.516;13.318;2023-06-22T13:47:56;5.40;;;4.68;;
22184;SDS011;11258;52.516;13.318;2023-06-22T13:50:22;5.88;;;5.03;;
22184;SDS011;11258;52.516;13.318;2023-06-22T13:52:48;6.10;;;5.47;;
22184;SDS011;11258;52.516;13.318;2023-06-22T13:55:13;6.70;;;4.85;;
22184;SDS011;11258;52.516;13.318;2023-06-22T13:57:40;6.10;;;4.60;;
22184;SDS011;11258;52.516;13.318;2023-06-22T14:00:06;5.18;;;4.38;;
22184;SDS011;11258;52.516;13.318;2023-06-22T14:02:36;6.75;;;4.93;;
22184;SDS011;11258;52.516;13.318;2023-06-22T14:05:01;7.43;;;5.45;;
22184;SDS011;11258;52.516;13.318;2023-06-22T14:07:27;6.03;;;5.43;;
22184;SDS011;11258;52.516;13.318;2023-06-22T14:09:53;5.65;;;5.15;;
22184;SDS011;11258;52.516;13.318;2023-06-22T14:12:18;6.63;;;4.40;;
22184;SDS011;11258;52.516;13.318;2023-06-22T14:14:44;5.28;;;4.78;;
22184;SDS011;11258;52.516;13.318;2023-06-22T14:17:10;5.68;;;4.97;;
22184;SDS011;11258;52.516;13.318;2023-06-22T14:19:36;5.70;;;4.72;;
22184;SDS011;11258;52.516;13.318;2023-06-22T14:22:01;6.47;;;4.13;;
22184;SDS011;11258;52.516;13.318;2023-06-22T14:24:27;7.00;;;4.80;;
22184;SDS011;11258;52.516;13.318;2023-06-22T14:26:53;4.70;;;4.00;;
22184;SDS011;11258;52.516;13.318;2023-06-22T14:29:20;6.60;;;4.93;;
22184;SDS011;11258;52.516;13.318;2023-06-22T14:31:50;5.53;;;4.70;;
22184;SDS011;11258;52.516;13.318;2023-06-22T14:34:15;7.88;;;4.75;;